Time;durP1;ratioP1;P1;durP2;ratioP2;P2;SDS_P1;SDS_P2;PMS_P1;PMS_P2;Temp;Humidity;BMP_temperature;BMP_pressure;BME280_temperature;BME280_humidity;BME280_pressure;Samples;Min_cycle;Max_cycle;Signal;HPM_P1;HPM_P2
2021/09/18 00:01:29;;;;;;;66.18;31.00;;;;;;;12.60;100.00;101016.47;5052039;28;20052;-67
2021/09/18 00:03:59;;;;;;;69.00;32.22;;;;;;;12.80;100.00;101018.78;5048769;28;20049;-66
2021/09/18 00:06:27;;;;;;;73.32;33.05;;;;;;;12.95;100.00;101017.03;5044062;28;20076;-66
2021/09/18 00:08:55;;;;;;;81.57;34.95;;;;;;;13.04;100.00;101023.19;5046012;28;20059;-66
2021/09/18 00:11:23;;;;;;;86.13;37.97;;;;;;;13.04;100.00;101025.88;5053621;28;20091;-67
2021/09/18 00:13:51;;;;;;;79.25;35.70;;;;;;;13.01;100.00;101027.09;5047401;28;20053;-67
2021/09/18 00:16:18;;;;;;;76.63;35.38;;;;;;;12.87;100.00;101022.44;5044449;28;20045;-67
2021/09/18 00:18:46;;;;;;;73.70;33.90;;;;;;;12.62;100.00;101019.84;5050127;28;20098;-67
2021/09/18 00:21:16;;;;;;;66.55;30.88;;;;;;;12.26;100.00;101028.25;5049731;28;20288;-68
2021/09/18 00:23:44;;;;;;;79.18;33.60;;;;;;;12.14;100.00;101026.94;5043744;28;20441;-67
2021/09/18 00:26:12;;;;;;;68.43;30.60;;;;;;;12.15;100.00;101036.63;5046012;28;20050;-67
2021/09/18 00:28:40;;;;;;;73.30;33.47;;;;;;;12.34;100.00;101025.56;5047146;28;20041;-67
2021/09/18 00:31:08;;;;;;;79.90;33.95;;;;;;;12.43;100.00;101028.25;5047720;28;20045;-67
2021/09/18 00:33:36;;;;;;;83.55;35.08;;;;;;;12.47;100.00;101032.25;5045854;28;20098;-68
2021/09/18 00:36:04;;;;;;;84.18;34.20;;;;;;;12.35;100.00;101032.63;5051008;28;20106;-67
2021/09/18 00:38:33;;;;;;;78.20;34.05;;;;;;;12.25;100.00;101031.09;5050103;28;20368;-67
2021/09/18 00:41:01;;;;;;;89.03;36.70;;;;;;;12.21;100.00;101033.31;5048369;28;20033;-67
2021/09/18 00:43:29;;;;;;;87.85;34.55;;;;;;;12.04;100.00;101024.44;5044416;28;20048;-67
2021/09/18 00:45:57;;;;;;;91.20;36.10;;;;;;;12.08;100.00;101020.44;5042509;28;20049;-67
2021/09/18 00:48:25;;;;;;;88.32;36.42;;;;;;;12.25;100.00;101028.44;5041211;28;20041;-68
2021/09/18 00:50:53;;;;;;;89.22;36.20;;;;;;;12.30;100.00;101024.25;5046773;28;20045;-68
2021/09/18 00:53:21;;;;;;;77.80;31.25;;;;;;;11.97;100.00;101026.94;5045253;28;20075;-68
2021/09/18 00:55:50;;;;;;;74.95;31.52;;;;;;;11.77;100.00;101022.91;5044243;28;20045;-68
2021/09/18 00:58:18;;;;;;;79.90;32.10;;;;;;;11.84;100.00;101026.59;5043549;28;20056;-68
2021/09/18 01:00:46;;;;;;;79.18;32.33;;;;;;;11.84;100.00;101018.56;5044024;28;20037;-66
2021/09/18 01:03:14;;;;;;;83.63;32.72;;;;;;;11.74;100.00;101018.72;5045703;28;20114;-67
2021/09/18 01:05:43;;;;;;;83.22;33.42;;;;;;;11.86;100.00;101011.19;5049649;28;20132;-67
2021/09/18 01:08:11;;;;;;;86.20;32.85;;;;;;;11.96;100.00;101011.06;5031870;28;20053;-68
2021/09/18 01:10:39;;;;;;;95.15;36.45;;;;;;;11.96;100.00;101017.22;5048891;28;20053;-67
2021/09/18 01:13:11;;;;;;;94.30;35.05;;;;;;;12.16;100.00;101024.94;5046024;28;20053;-67
2021/09/18 01:15:40;;;;;;;92.05;36.55;;;;;;;12.23;100.00;101025.94;5049097;28;20433;-67
2021/09/18 01:18:09;;;;;;;90.28;36.40;;;;;;;12.26;100.00;101033.63;5045218;28;20476;-67
2021/09/18 01:20:38;;;;;;;75.03;33.10;;;;;;;12.03;100.00;101023.59;5049055;28;20333;-68
2021/09/18 01:23:08;;;;;;;66.95;28.25;;;;;;;11.87;100.00;101026.25;5048032;28;20049;-68
2021/09/18 01:25:39;;;;;;;62.20;26.30;;;;;;;11.69;100.00;101026.38;5050454;28;20448;-67
2021/09/18 01:28:07;;;;;;;60.38;27.73;;;;;;;11.50;100.00;101022.19;5045855;28;20052;-67
2021/09/18 01:30:36;;;;;;;60.78;26.73;;;;;;;11.31;100.00;101017.94;5046487;28;20052;-68
2021/09/18 01:33:05;;;;;;;55.33;25.85;;;;;;;11.33;100.00;101032.00;5048403;28;20053;-68
2021/09/18 01:35:33;;;;;;;70.70;27.95;;;;;;;11.23;100.00;101021.44;5053181;28;20163;-68
2021/09/18 01:38:01;;;;;;;66.72;28.42;;;;;;;11.25;100.00;101022.13;5049725;28;20049;-67
2021/09/18 01:40:31;;;;;;;73.05;27.50;;;;;;;11.17;100.00;101027.44;5046777;28;20037;-68
2021/09/18 01:43:00;;;;;;;60.65;28.08;;;;;;;11.36;100.00;101023.66;5045430;28;20045;-67
2021/09/18 01:45:31;;;;;;;48.72;23.13;;;;;;;11.45;100.00;101029.84;5049533;28;20446;-68
2021/09/18 01:48:01;;;;;;;61.85;27.48;;;;;;;11.31;100.00;101032.19;5043834;28;20426;-67
2021/09/18 01:50:31;;;;;;;76.10;29.67;;;;;;;11.12;100.00;101022.56;5048276;28;20040;-68
2021/09/18 01:53:01;;;;;;;73.43;28.48;;;;;;;10.95;100.00;101018.19;5049454;28;20047;-68
2021/09/18 01:55:30;;;;;;;66.13;27.38;;;;;;;10.87;100.00;101023.47;5046321;28;20041;-68
2021/09/18 01:58:00;;;;;;;74.65;31.08;;;;;;;11.09;100.00;101020.22;5048177;28;20059;-68
2021/09/18 02:00:29;;;;;;;101.47;35.83;;;;;;;11.23;100.00;101020.59;5045605;28;20090;-68
2021/09/18 02:02:57;;;;;;;89.35;37.55;;;;;;;11.59;100.00;101026.53;5051102;28;20041;-67
2021/09/18 02:05:27;;;;;;;93.90;35.28;;;;;;;11.58;100.00;101024.88;5049152;28;20056;-67
2021/09/18 02:07:56;;;;;;;107.40;39.70;;;;;;;11.63;100.00;101022.53;5047857;28;20372;-67
2021/09/18 02:10:26;;;;;;;109.20;39.65;;;;;;;11.67;100.00;101028.41;5048120;28;20041;-68
2021/09/18 02:12:54;;;;;;;115.97;41.60;;;;;;;11.82;100.00;101028.56;5024455;28;20049;-67
2021/09/18 02:15:24;;;;;;;120.00;43.00;;;;;;;11.96;100.00;101030.63;5049048;28;20048;-67
2021/09/18 02:17:54;;;;;;;125.65;41.90;;;;;;;12.10;100.00;101028.28;5041800;28;20067;-67
2021/09/18 02:20:25;;;;;;;135.65;44.90;;;;;;;12.17;100.00;101032.78;5050801;28;20037;-67
2021/09/18 02:22:53;;;;;;;129.15;42.10;;;;;;;12.20;100.00;101039.66;5048853;28;20057;-68
2021/09/18 02:25:22;;;;;;;122.78;46.78;;;;;;;12.27;100.00;101037.16;5043555;28;20048;-68
2021/09/18 02:27:50;;;;;;;124.82;43.47;;;;;;;12.26;100.00;101033.63;5047652;28;20045;-67
2021/09/18 02:30:19;;;;;;;137.65;45.28;;;;;;;12.27;100.00;101029.13;5045221;28;20076;-67
2021/09/18 02:32:49;;;;;;;138.63;45.55;;;;;;;12.36;100.00;101030.75;5053647;28;20491;-68
2021/09/18 02:35:19;;;;;;;132.35;46.65;;;;;;;12.40;100.00;101035.63;5050445;28;20378;-67
2021/09/18 02:37:48;;;;;;;137.85;46.30;;;;;;;12.42;100.00;101030.09;5046719;28;20053;-67
2021/09/18 02:40:16;;;;;;;126.80;44.20;;;;;;;12.39;100.00;101033.94;5046073;28;20045;-67
2021/09/18 02:42:47;;;;;;;125.03;43.58;;;;;;;12.38;100.00;101026.91;5046780;28;20044;-67
2021/09/18 02:45:16;;;;;;;116.38;42.30;;;;;;;12.41;100.00;101033.78;5048883;28;20049;-66
2021/09/18 02:47:44;;;;;;;115.55;40.97;;;;;;;12.44;100.00;101035.28;5044066;28;20088;-66
2021/09/18 02:50:16;;;;;;;123.63;41.45;;;;;;;12.45;100.00;101034.28;5049619;28;20044;-67
2021/09/18 02:52:44;;;;;;;109.32;40.42;;;;;;;12.49;100.00;101038.28;5051850;28;20056;-68
2021/09/18 02:55:13;;;;;;;106.95;38.97;;;;;;;12.31;100.00;101039.31;5046975;28;20041;-68
2021/09/18 02:57:42;;;;;;;89.72;35.08;;;;;;;12.26;100.00;101035.47;5048639;28;20273;-68
2021/09/18 03:00:11;;;;;;;104.32;36.58;;;;;;;12.23;100.00;101025.94;5046786;28;20048;-68
2021/09/18 03:02:39;;;;;;;92.47;36.22;;;;;;;12.25;100.00;101031.97;5050710;28;20092;-68
2021/09/18 03:05:09;;;;;;;100.53;39.42;;;;;;;12.27;100.00;101021.91;5046512;28;20354;-68
2021/09/18 03:07:39;;;;;;;97.57;38.60;;;;;;;12.22;100.00;101022.41;5043543;28;20052;-68
2021/09/18 03:10:09;;;;;;;93.13;33.88;;;;;;;12.16;100.00;101016.91;5048136;28;20326;-68
2021/09/18 03:12:37;;;;;;;83.93;33.00;;;;;;;11.94;100.00;101013.91;5048480;28;20036;-69
2021/09/18 03:15:07;;;;;;;55.45;24.25;;;;;;;11.51;100.00;101008.66;5046527;28;20068;-68
2021/09/18 03:17:35;;;;;;;44.47;19.95;;;;;;;11.08;100.00;101009.72;5045097;28;20283;-68
2021/09/18 03:20:05;;;;;;;38.35;18.42;;;;;;;10.86;100.00;101001.28;5044321;28;20430;-67
2021/09/18 03:22:32;;;;;;;37.17;17.75;;;;;;;10.81;100.00;100998.25;5048077;28;20037;-68
2021/09/18 03:25:03;;;;;;;39.30;17.98;;;;;;;10.74;100.00;100995.38;5046309;28;20048;-68
2021/09/18 03:27:31;;;;;;;58.92;25.52;;;;;;;10.88;100.00;101001.94;5047033;28;20049;-67
2021/09/18 03:29:59;;;;;;;75.80;28.90;;;;;;;11.10;100.00;100999.69;5043326;28;20041;-67
2021/09/18 03:32:27;;;;;;;97.40;34.38;;;;;;;11.37;100.00;101003.94;5044312;28;20060;-67
2021/09/18 03:34:56;;;;;;;89.47;33.67;;;;;;;11.35;100.00;100998.78;5045655;28;20052;-67
2021/09/18 03:37:24;;;;;;;98.78;36.30;;;;;;;11.35;100.00;100998.78;5043280;28;20429;-68
2021/09/18 03:39:52;;;;;;;86.78;34.80;;;;;;;11.30;100.00;101005.59;5049806;28;20048;-68
2021/09/18 03:42:21;;;;;;;87.65;32.47;;;;;;;10.98;100.00;101008.00;5048187;28;20048;-68
2021/09/18 03:44:49;;;;;;;92.55;32.95;;;;;;;10.76;100.00;101012.09;5045436;28;20052;-67
2021/09/18 03:47:17;;;;;;;74.28;30.70;;;;;;;10.66;100.00;101011.34;5042674;28;20048;-67
2021/09/18 03:49:45;;;;;;;87.25;32.00;;;;;;;10.48;100.00;101017.59;5044579;28;20048;-68
2021/09/18 03:52:13;;;;;;;72.63;26.98;;;;;;;10.41;100.00;101010.38;5044702;28;20045;-68
2021/09/18 03:54:41;;;;;;;55.88;24.23;;;;;;;10.54;100.00;101013.47;5049738;28;20523;-68
2021/09/18 03:57:09;;;;;;;57.42;21.05;;;;;;;10.42;100.00;101020.91;5039344;28;20041;-67
2021/09/18 03:59:38;;;;;;;47.58;18.95;;;;;;;10.37;100.00;101019.69;5047787;28;20044;-67
2021/09/18 04:02:06;;;;;;;40.20;17.35;;;;;;;10.40;100.00;101024.72;5047650;28;20041;-66
2021/09/18 04:04:34;;;;;;;53.80;22.60;;;;;;;10.32;100.00;101028.16;5040817;28;20425;-66
2021/09/18 04:07:02;;;;;;;61.65;24.80;;;;;;;10.21;100.00;101025.75;5046497;28;20268;-66
2021/09/18 04:09:30;;;;;;;64.47;26.15;;;;;;;10.14;100.00;101028.19;5045897;28;20041;-67
2021/09/18 04:11:58;;;;;;;76.15;25.88;;;;;;;10.03;100.00;101018.59;5044451;28;20471;-67
2021/09/18 04:14:26;;;;;;;86.82;32.20;;;;;;;10.22;100.00;101024.72;5042035;28;20540;-68
2021/09/18 04:16:55;;;;;;;96.22;33.10;;;;;;;10.49;100.00;101023.78;5048437;28;20056;-65
2021/09/18 04:19:23;;;;;;;101.72;33.88;;;;;;;10.49;100.00;101024.63;5047913;28;20045;-65
2021/09/18 04:21:51;;;;;;;92.07;32.85;;;;;;;10.43;100.00;101029.75;5043783;28;20061;-68
2021/09/18 04:24:19;;;;;;;114.57;34.30;;;;;;;10.46;100.00;101024.94;5045651;28;20217;-67
2021/09/18 04:26:47;;;;;;;98.70;35.05;;;;;;;10.80;100.00;101029.47;5044964;28;20110;-68
2021/09/18 04:29:15;;;;;;;94.47;33.33;;;;;;;10.91;100.00;101031.00;5053479;28;20465;-69
2021/09/18 04:31:43;;;;;;;99.97;36.15;;;;;;;10.90;100.00;101034.69;5047718;28;20352;-67
2021/09/18 04:34:13;;;;;;;108.00;37.33;;;;;;;10.81;100.00;101038.31;5048995;28;20049;-69
2021/09/18 04:36:40;;;;;;;112.45;35.45;;;;;;;10.71;100.00;101037.59;5043010;28;20052;-68
2021/09/18 04:39:08;;;;;;;115.55;37.33;;;;;;;10.66;100.00;101036.25;5048906;28;20045;-68
2021/09/18 04:41:36;;;;;;;119.05;37.42;;;;;;;10.62;100.00;101034.88;5047823;28;20510;-68
2021/09/18 04:44:04;;;;;;;119.18;40.30;;;;;;;10.65;100.00;101039.91;5052907;28;20044;-69
2021/09/18 04:46:32;;;;;;;112.60;38.63;;;;;;;10.58;100.00;101038.84;5045006;28;20068;-68
2021/09/18 04:49:00;;;;;;;117.05;41.80;;;;;;;10.77;100.00;101042.28;5045910;28;20073;-68
2021/09/18 04:51:31;;;;;;;142.35;43.90;;;;;;;10.91;100.00;101044.38;5049668;28;20033;-68
2021/09/18 04:53:59;;;;;;;137.15;42.45;;;;;;;11.11;100.00;101038.78;5052286;28;20068;-67
2021/09/18 04:56:26;;;;;;;128.77;41.17;;;;;;;11.23;100.00;101048.19;5046480;28;20264;-68
2021/09/18 04:58:54;;;;;;;128.40;41.35;;;;;;;11.18;100.00;101047.81;5050764;28;20041;-68
2021/09/18 05:01:22;;;;;;;148.18;41.78;;;;;;;10.98;100.00;101047.25;5044404;28;20049;-68
2021/09/18 05:03:51;;;;;;;121.65;41.67;;;;;;;10.81;100.00;101049.00;5047845;28;20353;-68
2021/09/18 05:06:19;;;;;;;147.73;43.05;;;;;;;10.85;100.00;101055.69;5042587;28;21229;-67
2021/09/18 05:08:48;;;;;;;149.48;40.58;;;;;;;10.64;100.00;101051.56;5045825;28;20049;-67
2021/09/18 05:11:16;;;;;;;122.38;37.90;;;;;;;10.38;100.00;101050.75;5042537;28;20045;-68
2021/09/18 05:13:43;;;;;;;130.50;37.47;;;;;;;10.27;100.00;101052.63;5043539;28;20034;-67
2021/09/18 05:16:11;;;;;;;130.18;39.15;;;;;;;10.25;100.00;101046.63;5042175;28;20040;-67
2021/09/18 05:18:39;;;;;;;124.60;39.30;;;;;;;10.15;100.00;101053.88;5045355;28;20068;-67
2021/09/18 05:21:07;;;;;;;123.40;37.30;;;;;;;10.04;100.00;101065.63;5046912;28;20044;-68
2021/09/18 05:23:35;;;;;;;101.85;34.28;;;;;;;10.02;100.00;101064.09;5047614;28;20330;-68
2021/09/18 05:26:05;;;;;;;96.75;31.05;;;;;;;10.01;100.00;101071.28;5042593;28;20465;-68
2021/09/18 05:28:33;;;;;;;91.00;27.80;;;;;;;9.97;100.00;101068.06;5048433;28;20033;-68
2021/09/18 05:31:01;;;;;;;83.50;30.02;;;;;;;9.80;100.00;101067.06;5044049;28;20041;-67
2021/09/18 05:33:34;;;;;;;74.50;28.80;;;;;;;9.88;100.00;101070.81;5043001;28;20504;-67
2021/09/18 05:36:02;;;;;;;100.75;34.67;;;;;;;10.03;100.00;101073.78;5045608;28;20074;-67
2021/09/18 05:38:30;;;;;;;120.47;40.05;;;;;;;10.48;100.00;101070.19;5044025;28;20076;-67
2021/09/18 05:40:58;;;;;;;128.02;41.47;;;;;;;10.75;100.00;101071.84;5045129;28;20055;-67
2021/09/18 05:43:28;;;;;;;153.85;45.72;;;;;;;11.05;100.00;101072.31;5047580;28;20366;-68
2021/09/18 05:45:56;;;;;;;161.75;44.00;;;;;;;11.15;100.00;101077.56;5047034;28;20048;-67
2021/09/18 05:48:27;;;;;;;158.60;45.13;;;;;;;11.19;100.00;101074.38;5043673;28;20745;-67
2021/09/18 05:50:56;;;;;;;113.55;37.20;;;;;;;11.11;100.00;101073.53;5047117;28;20144;-67
2021/09/18 05:53:24;;;;;;;135.43;39.80;;;;;;;10.98;100.00;101072.13;5046394;28;20437;-68
2021/09/18 05:55:52;;;;;;;139.02;46.28;;;;;;;11.12;100.00;101078.72;5048028;28;20048;-67
2021/09/18 05:58:20;;;;;;;142.98;42.78;;;;;;;11.44;100.00;101089.69;5041787;28;20150;-67
2021/09/18 06:00:49;;;;;;;142.88;44.05;;;;;;;11.62;100.00;101084.22;5046333;28;20041;-69
2021/09/18 06:03:17;;;;;;;137.70;42.22;;;;;;;11.78;100.00;101083.41;5051239;28;20150;-70
2021/09/18 06:05:46;;;;;;;138.82;43.58;;;;;;;11.95;100.00;101085.16;5044473;28;20064;-70
2021/09/18 06:08:14;;;;;;;134.10;41.50;;;;;;;12.16;100.00;101091.84;5049166;28;20052;-70
2021/09/18 06:10:41;;;;;;;118.40;39.55;;;;;;;12.29;100.00;101092.22;5049232;28;20082;-70
2021/09/18 06:13:09;;;;;;;113.22;39.88;;;;;;;12.49;100.00;101097.19;5048524;28;20041;-69
2021/09/18 06:15:37;;;;;;;108.82;36.70;;;;;;;12.65;100.00;101086.47;5049535;28;20045;-69
2021/09/18 06:18:07;;;;;;;106.28;38.03;;;;;;;12.73;100.00;101094.50;5044949;28;20103;-69
2021/09/18 06:20:36;;;;;;;105.90;37.25;;;;;;;12.82;100.00;101089.13;5050972;28;20049;-69
2021/09/18 06:23:04;;;;;;;100.13;35.58;;;;;;;12.99;100.00;101084.56;5050564;28;20045;-69
2021/09/18 06:25:32;;;;;;;89.22;35.10;;;;;;;12.92;100.00;101074.50;5043410;28;20052;-69
2021/09/18 06:28:00;;;;;;;74.63;32.97;;;;;;;12.90;100.00;101068.50;5044295;28;20045;-70
2021/09/18 06:30:27;;;;;;;84.63;34.47;;;;;;;13.08;100.00;101068.28;5048880;28;20102;-69
2021/09/18 06:32:55;;;;;;;89.35;32.88;;;;;;;13.37;100.00;101066.81;5048987;28;20342;-69
2021/09/18 06:35:25;;;;;;;74.75;31.40;;;;;;;13.50;100.00;101062.75;5048900;28;20049;-69
2021/09/18 06:37:53;;;;;;;68.68;29.65;;;;;;;13.82;100.00;101055.50;5046511;28;20053;-68
2021/09/18 06:40:21;;;;;;;64.00;30.30;;;;;;;14.12;100.00;101054.59;5031341;28;20049;-69
2021/09/18 06:42:50;;;;;;;55.40;27.05;;;;;;;14.44;100.00;101055.31;5044353;28;20037;-68
2021/09/18 06:45:18;;;;;;;30.00;17.45;;;;;;;14.06;100.00;101052.63;5046795;28;20052;-68
2021/09/18 06:47:46;;;;;;;33.95;19.13;;;;;;;14.30;100.00;101061.47;5045773;28;20056;-69
2021/09/18 06:50:14;;;;;;;48.28;24.00;;;;;;;14.83;100.00;101052.56;5050007;28;20313;-67
2021/09/18 06:52:43;;;;;;;46.45;24.95;;;;;;;15.02;100.00;101052.03;5047913;28;21046;-65
2021/09/18 06:55:11;;;;;;;46.05;23.50;;;;;;;15.09;100.00;101047.56;5043341;28;20045;-67
2021/09/18 06:57:39;;;;;;;45.28;25.08;;;;;;;15.15;100.00;101029.84;5040288;28;20145;-65
2021/09/18 07:00:09;;;;;;;48.45;25.45;;;;;;;15.25;100.00;101040.31;5042651;28;20322;-64
2021/09/18 07:02:37;;;;;;;43.40;24.25;;;;;;;15.33;100.00;101030.25;5046449;28;20070;-64
2021/09/18 07:05:07;;;;;;;44.40;23.27;;;;;;;15.29;100.00;101026.28;5047201;28;20458;-63
2021/09/18 07:07:36;;;;;;;41.03;22.67;;;;;;;15.48;100.00;101022.16;5044394;28;20049;-66
2021/09/18 07:10:07;;;;;;;43.17;25.13;;;;;;;15.55;100.00;101018.69;5045614;28;20103;-66
2021/09/18 07:12:35;;;;;;;47.72;23.67;;;;;;;15.66;100.00;101031.66;5043698;28;20493;-67
2021/09/18 07:15:05;;;;;;;46.83;23.17;;;;;;;15.74;100.00;101028.84;5041551;28;20126;-66
2021/09/18 07:17:33;;;;;;;42.25;23.05;;;;;;;15.84;100.00;101023.16;5042905;28;20048;-66
2021/09/18 07:20:02;;;;;;;40.65;21.98;;;;;;;15.56;100.00;101021.19;5049498;28;20231;-65
2021/09/18 07:22:30;;;;;;;40.63;21.98;;;;;;;15.60;100.00;101027.03;5046955;28;20045;-66
2021/09/18 07:24:58;;;;;;;46.13;24.75;;;;;;;15.69;100.00;101031.25;5047029;28;20437;-66
2021/09/18 07:27:27;;;;;;;40.78;22.08;;;;;;;15.69;100.00;101025.88;5045037;28;20384;-65
2021/09/18 07:29:57;;;;;;;41.75;22.83;;;;;;;15.87;100.00;101024.66;5044361;28;20102;-66
2021/09/18 07:32:26;;;;;;;44.67;23.48;;;;;;;15.83;100.00;101030.41;5048043;28;20052;-66
2021/09/18 07:34:54;;;;;;;45.78;24.55;;;;;;;16.16;100.00;101029.88;5046923;28;20048;-66
2021/09/18 07:37:21;;;;;;;45.28;23.45;;;;;;;16.51;100.00;101024.53;5041117;28;20892;-66
2021/09/18 07:39:50;;;;;;;40.15;21.70;;;;;;;16.21;100.00;101023.88;5047923;28;20190;-67
2021/09/18 07:42:18;;;;;;;36.03;20.95;;;;;;;16.56;100.00;101026.63;5046557;28;20049;-67
2021/09/18 07:44:47;;;;;;;36.00;20.48;;;;;;;16.49;100.00;101025.75;5045367;28;20404;-68
2021/09/18 07:47:15;;;;;;;39.10;21.50;;;;;;;16.39;100.00;101031.50;5041582;28;20048;-65
2021/09/18 07:49:43;;;;;;;35.80;19.90;;;;;;;16.33;100.00;101032.25;5043022;28;20060;-66
2021/09/18 07:52:11;;;;;;;32.60;19.02;;;;;;;16.08;100.00;101037.25;5046392;28;20479;-65
2021/09/18 07:54:39;;;;;;;36.22;19.63;;;;;;;16.03;100.00;101037.00;5043131;28;20083;-66
2021/09/18 07:57:27;;;;;;;35.67;20.92;;;;;;;16.22;100.00;101039.03;5042807;28;20069;-66
2021/09/18 07:59:56;;;;;;;30.45;18.58;;;;;;;16.00;100.00;101030.13;5046298;28;20048;-66
2021/09/18 08:02:24;;;;;;;32.75;18.42;;;;;;;16.07;100.00;101033.72;5040908;28;20056;-66
2021/09/18 08:04:52;;;;;;;32.65;20.33;;;;;;;16.32;100.00;101036.00;5043664;28;20044;-66
2021/09/18 08:07:21;;;;;;;32.30;17.63;;;;;;;16.18;100.00;101030.50;5044135;28;20450;-67
2021/09/18 08:09:49;;;;;;;31.30;17.77;;;;;;;16.43;100.00;101032.78;5040533;28;20095;-67
2021/09/18 08:12:17;;;;;;;28.45;15.23;;;;;;;16.62;100.00;101033.09;5042242;28;20041;-67
2021/09/18 08:14:47;;;;;;;25.80;14.95;;;;;;;16.77;100.00;101028.41;5050607;28;20048;-66
2021/09/18 08:17:16;;;;;;;24.67;15.93;;;;;;;17.03;100.00;101033.13;5048254;28;20040;-66
2021/09/18 08:19:44;;;;;;;23.33;15.30;;;;;;;17.18;100.00;101035.69;5050684;28;20057;-66
2021/09/18 08:22:12;;;;;;;26.25;15.25;;;;;;;16.90;100.00;101038.47;5046952;28;20076;-66
2021/09/18 08:24:41;;;;;;;26.52;16.55;;;;;;;16.99;100.00;101039.13;5047909;28;20041;-66
2021/09/18 08:27:09;;;;;;;24.65;15.15;;;;;;;16.90;100.00;101038.47;5044232;28;20404;-67
2021/09/18 08:29:38;;;;;;;22.98;14.10;;;;;;;16.98;100.00;101041.00;5046678;28;20045;-67
2021/09/18 08:32:06;;;;;;;21.65;13.68;;;;;;;17.03;100.00;101043.09;5053063;28;20318;-67
2021/09/18 08:34:35;;;;;;;25.17;14.23;;;;;;;17.15;100.00;101046.03;5051728;28;20354;-66
2021/09/18 08:37:03;;;;;;;21.58;13.27;;;;;;;17.28;100.00;101043.41;5046834;28;20044;-66
2021/09/18 08:39:35;;;;;;;18.95;12.43;;;;;;;17.72;100.00;101038.56;5052039;28;20366;-66
2021/09/18 08:42:03;;;;;;;21.77;13.35;;;;;;;18.20;100.00;101024.91;5050265;28;20052;-67
2021/09/18 08:44:31;;;;;;;20.35;11.75;;;;;;;19.07;100.00;101015.78;5049229;28;20711;-67
2021/09/18 08:47:00;;;;;;;19.73;12.45;;;;;;;19.59;100.00;101013.84;5054542;28;20279;-67
2021/09/18 08:49:28;;;;;;;19.58;12.00;;;;;;;19.98;100.00;101010.25;5046865;28;20048;-67
2021/09/18 08:51:58;;;;;;;18.70;11.65;;;;;;;20.62;100.00;101006.28;5053002;28;20053;-67
2021/09/18 08:54:26;;;;;;;17.50;10.95;;;;;;;20.88;100.00;101008.97;5049630;28;20037;-66
2021/09/18 08:56:54;;;;;;;14.85;10.25;;;;;;;20.93;100.00;101014.53;5051863;28;20098;-67
2021/09/18 08:59:21;;;;;;;18.73;11.15;;;;;;;21.28;100.00;101011.19;5047222;28;20103;-67
2021/09/18 09:02:08;;;;;;;16.77;10.35;;;;;;;21.61;100.00;101010.72;5051028;28;20052;-66
2021/09/18 09:04:36;;;;;;;15.57;10.80;;;;;;;21.47;100.00;101012.78;5053118;28;20037;-66
2021/09/18 09:07:08;;;;;;;14.80;10.52;;;;;;;21.63;100.00;101010.50;5052023;28;20044;-67
2021/09/18 09:09:57;;;;;;;14.98;9.45;;;;;;;22.27;100.00;101016.16;5050979;28;20048;-68
2021/09/18 09:12:27;;;;;;;13.40;8.80;;;;;;;22.46;100.00;101016.06;5042616;28;20069;-68
2021/09/18 09:14:56;;;;;;;14.02;9.30;;;;;;;22.65;100.00;101009.41;5046884;28;20048;-68
2021/09/18 09:17:26;;;;;;;16.48;10.27;;;;;;;22.90;100.00;101012.91;5045380;28;20049;-67
2021/09/18 09:19:54;;;;;;;14.55;9.57;;;;;;;21.83;100.00;101018.31;5049133;28;20140;-67
2021/09/18 09:22:38;;;;;;;13.68;9.50;;;;;;;22.64;100.00;101010.47;5045949;28;20061;-67
2021/09/18 09:25:08;;;;;;;13.10;8.93;;;;;;;22.74;100.00;101011.75;5048297;28;20124;-67
2021/09/18 09:27:36;;;;;;;14.90;9.85;;;;;;;22.93;100.00;101007.81;5048049;28;20041;-67
2021/09/18 09:30:08;;;;;;;13.55;10.05;;;;;;;23.55;100.00;101004.38;5046098;28;20072;-67
2021/09/18 09:32:38;;;;;;;15.93;8.88;;;;;;;23.70;100.00;101006.56;5046226;28;20090;-67
2021/09/18 09:35:08;;;;;;;12.75;8.50;;;;;;;23.67;100.00;101007.06;5045599;28;20041;-67
2021/09/18 09:37:38;;;;;;;10.93;7.25;;;;;;;23.83;100.00;100999.09;5044340;28;20041;-67
2021/09/18 09:40:09;;;;;;;12.48;8.30;;;;;;;24.27;100.00;100999.31;5049514;28;20037;-67
2021/09/18 09:42:42;;;;;;;10.57;7.35;;;;;;;24.05;100.00;100996.50;5047332;28;20228;-67
2021/09/18 09:45:12;;;;;;;12.07;7.95;;;;;;;23.72;100.00;100993.50;5047186;28;20440;-66
2021/09/18 09:47:43;;;;;;;11.55;6.90;;;;;;;23.67;100.00;100996.16;5040200;28;20048;-66
2021/09/18 09:50:11;;;;;;;10.95;7.05;;;;;;;24.75;100.00;100997.81;5046455;28;20049;-67
2021/09/18 09:52:42;;;;;;;9.95;7.30;;;;;;;24.59;100.00;100990.44;5048097;28;20052;-67
2021/09/18 09:55:11;;;;;;;9.43;6.85;;;;;;;24.56;100.00;100986.31;5046009;28;20075;-66
2021/09/18 09:57:40;;;;;;;10.18;6.60;;;;;;;24.29;100.00;100988.13;5039584;28;20049;-66
2021/09/18 10:00:12;;;;;;;9.27;7.00;;;;;;;24.05;100.00;100994.59;5045086;28;20037;-66
2021/09/18 10:02:41;;;;;;;9.07;6.50;;;;;;;24.01;100.00;100996.16;5044973;28;20111;-66
2021/09/18 10:05:12;;;;;;;11.10;6.38;;;;;;;23.55;100.00;100987.22;5052043;28;20385;-67
2021/09/18 10:07:41;;;;;;;9.25;6.60;;;;;;;23.76;100.00;100987.53;5045983;28;20045;-67
2021/09/18 10:10:12;;;;;;;11.90;6.15;;;;;;;23.94;100.00;100987.31;5050640;28;20045;-67
2021/09/18 10:12:41;;;;;;;11.30;6.47;;;;;;;23.68;100.00;100986.88;5045304;28;20048;-66
2021/09/18 10:15:10;;;;;;;10.05;5.85;;;;;;;23.55;100.00;100988.03;5048272;28;20063;-66
2021/09/18 10:17:41;;;;;;;10.20;6.00;;;;;;;23.96;100.00;100981.63;5042033;28;20058;-67
2021/09/18 10:20:12;;;;;;;8.40;4.90;;;;;;;24.19;100.00;100986.91;5039016;28;20384;-66
2021/09/18 10:25:33;;;;;;;8.13;5.85;;;;;;;24.47;100.00;100985.13;5035242;28;20056;-67
2021/09/18 10:28:08;;;;;;;8.93;5.93;;;;;;;24.66;100.00;100977.47;5041316;28;20127;-67
2021/09/18 10:30:38;;;;;;;6.55;4.47;;;;;;;24.37;100.00;100972.16;5045572;28;20037;-66
2021/09/18 10:33:07;;;;;;;7.28;5.05;;;;;;;24.00;100.00;100967.25;5047322;28;20385;-67
2021/09/18 10:35:53;;;;;;;7.22;5.10;;;;;;;24.13;100.00;100959.78;5044837;28;20040;-66
2021/09/18 10:38:24;;;;;;;8.57;5.15;;;;;;;24.64;100.00;100960.53;5042488;28;20052;-66
2021/09/18 10:40:57;;;;;;;6.85;4.65;;;;;;;24.96;100.00;100957.06;5046086;28;20051;-67
2021/09/18 10:43:27;;;;;;;6.70;4.22;;;;;;;25.33;100.00;100978.25;5050277;28;20052;-66
2021/09/18 10:45:57;;;;;;;6.18;4.95;;;;;;;25.25;100.00;100968.59;5045162;28;20425;-66
2021/09/18 10:48:40;;;;;;;5.40;3.90;;;;;;;25.33;100.00;100961.84;5044604;28;20076;-67
2021/09/18 10:51:09;;;;;;;6.28;3.85;;;;;;;25.31;100.00;100957.72;5045598;28;20053;-65
2021/09/18 10:54:06;;;;;;;7.28;4.60;;;;;;;25.13;100.00;100956.16;5045442;28;20598;-66
2021/09/18 10:56:56;;;;;;;6.10;4.40;;;;;;;24.53;100.00;100953.25;5045434;28;20445;-66
2021/09/18 10:59:48;;;;;;;7.78;4.60;;;;;;;24.67;100.00;100949.09;5043569;28;20040;-66
2021/09/18 11:02:48;;;;;;;4.93;3.72;;;;;;;25.25;100.00;100948.63;5047439;28;20055;-66
2021/09/18 11:05:56;;;;;;;5.55;4.20;;;;;;;25.43;100.00;100953.75;5047105;28;21057;-66
2021/09/18 11:08:28;;;;;;;6.53;3.90;;;;;;;25.12;100.00;100949.03;5037719;28;20079;-66
2021/09/18 11:10:59;;;;;;;4.63;3.67;;;;;;;25.45;100.00;100953.50;5046936;28;20048;-65
2021/09/18 11:13:36;;;;;;;6.65;3.63;;;;;;;24.95;100.00;100947.25;5041007;28;20189;-65
2021/09/18 11:16:29;;;;;;;7.25;3.65;;;;;;;25.56;100.00;100949.78;5045840;28;20044;-66